Terminal Aerodrome Forecast
Issued by NWS Corpus Christi, TX

Home | Current Version | Previous Version | Text Only | Print | Product List | Glossary On
Versions: 1 2 3 4 5 6 7 8 9 10 11 12 13 14 15 16 17 18 19 20
000
FTUS44 KCRP 281700
TAFCRP
TAF
KCRP 281727Z 2818/2918 19011KT P6SM FEW250
     FM282000 15014G19KT P6SM SCT250
     FM290100 15009KT P6SM SCT250
     FM290600 15006KT 3SM BR BKN007
     FM290900 16005KT 1/2SM FG OVC003
     FM291500 16007KT 2SM BR BKN007
     FM291700 17012KT P6SM BKN015=

USA.gov is the U.S. government's official web portal to all federal, state and local government web resources and services.